createdAt,value
2024-05-09T00:00:18.601Z,12.70
2024-05-09T00:00:58.696Z,12.60
2024-05-09T00:01:33.770Z,12.60
2024-05-09T00:02:06.140Z,12.60
2024-05-09T00:02:40.944Z,12.50
2024-05-09T00:03:13.620Z,12.50
2024-05-09T00:03:48.824Z,12.50
2024-05-09T00:04:24.176Z,12.50
2024-05-09T00:04:56.678Z,12.50
2024-05-09T00:05:29.142Z,12.50
2024-05-09T00:06:04.449Z,12.60
2024-05-09T00:06:36.832Z,12.60
2024-05-09T00:07:09.118Z,12.60
2024-05-09T00:07:41.402Z,12.60
2024-05-09T00:08:16.667Z,12.60
2024-05-09T00:08:49.165Z,12.60
2024-05-09T00:09:21.451Z,12.60
2024-05-09T00:09:53.764Z,12.60
2024-05-09T00:10:35.199Z,12.60
2024-05-09T00:11:10.223Z,12.60
2024-05-09T00:11:42.746Z,12.50
2024-05-09T00:12:15.278Z,12.50
2024-05-09T00:12:50.269Z,12.50
2024-05-09T00:13:22.572Z,12.50
2024-05-09T00:13:54.895Z,12.60
2024-05-09T00:14:27.262Z,12.50
2024-05-09T00:15:02.330Z,12.50
2024-05-09T00:15:35.464Z,12.60
2024-05-09T00:16:08.368Z,12.50
2024-05-09T00:16:40.708Z,12.50
2024-05-09T00:17:15.800Z,12.60
2024-05-09T00:17:48.377Z,12.60
2024-05-09T00:18:21.081Z,12.60
2024-05-09T00:18:53.597Z,12.60
2024-05-09T00:19:31.741Z,12.60
2024-05-09T00:20:11.098Z,12.60
2024-05-09T00:20:46.822Z,12.60
2024-05-09T00:21:21.814Z,12.60
2024-05-09T00:21:54.114Z,12.60
2024-05-09T00:22:26.544Z,12.60
2024-05-09T00:22:58.898Z,12.60
2024-05-09T00:23:33.903Z,12.60
2024-05-09T00:24:06.562Z,12.50
2024-05-09T00:24:38.857Z,12.50
2024-05-09T00:25:13.786Z,12.50
2024-05-09T00:25:46.172Z,12.50
2024-05-09T00:26:18.520Z,12.40
2024-05-09T00:26:50.862Z,12.40
2024-05-09T00:27:25.839Z,12.40
2024-05-09T00:27:58.156Z,12.40
2024-05-09T00:28:30.473Z,12.40
2024-05-09T00:29:05.427Z,12.40
2024-05-09T00:29:37.790Z,12.40
2024-05-09T00:30:14.379Z,12.40
2024-05-09T00:30:49.866Z,12.40
2024-05-09T00:31:27.087Z,12.40
2024-05-09T00:31:59.452Z,12.50
2024-05-09T00:32:31.959Z,12.50
2024-05-09T00:33:06.305Z,12.50
2024-05-09T00:33:42.635Z,12.50
2024-05-09T00:34:15.231Z,12.50
2024-05-09T00:34:50.247Z,12.50
2024-05-09T00:35:22.680Z,12.50
2024-05-09T00:35:57.655Z,12.50
2024-05-09T00:36:29.938Z,12.50
2024-05-09T00:37:02.218Z,12.50
2024-05-09T00:37:34.494Z,12.50
2024-05-09T00:38:07.162Z,12.50
2024-05-09T00:38:42.321Z,12.60
2024-05-09T00:39:14.655Z,12.60
2024-05-09T00:39:46.956Z,12.60
2024-05-09T00:40:27.246Z,12.60
2024-05-09T00:41:10.686Z,12.60
2024-05-09T00:41:43.085Z,12.60
2024-05-09T00:42:15.387Z,12.60
2024-05-09T00:42:47.714Z,12.60
2024-05-09T00:43:22.698Z,12.60
2024-05-09T00:43:54.982Z,12.60
2024-05-09T00:44:27.399Z,12.70
2024-05-09T00:45:02.433Z,12.70
2024-05-09T00:45:35.246Z,12.70
2024-05-09T00:46:08.568Z,12.60
2024-05-09T00:46:44.302Z,12.60
2024-05-09T00:47:18.135Z,12.60
2024-05-09T00:47:50.784Z,12.60
2024-05-09T00:48:26.740Z,12.60
2024-05-09T00:48:59.392Z,12.60
2024-05-09T00:49:33.329Z,12.60
2024-05-09T00:50:19.029Z,12.60
2024-05-09T00:50:57.640Z,12.60
2024-05-09T00:51:30.112Z,12.60
2024-05-09T00:52:03.082Z,12.60
2024-05-09T00:52:38.803Z,12.60
2024-05-09T00:53:12.986Z,12.60
2024-05-09T00:53:46.363Z,12.60
2024-05-09T00:54:21.975Z,12.60
2024-05-09T00:54:54.908Z,12.60
2024-05-09T00:55:27.652Z,12.60
2024-05-09T00:56:00.344Z,12.70
2024-05-09T00:56:38.069Z,12.70
2024-05-09T00:57:10.479Z,12.70
2024-05-09T00:57:43.862Z,12.70
2024-05-09T00:58:18.435Z,12.70
2024-05-09T00:58:53.921Z,12.70
2024-05-09T00:59:27.526Z,12.70
2024-05-09T01:00:00.512Z,12.70
2024-05-09T01:00:38.894Z,12.70
2024-05-09T01:01:15.903Z,12.70
2024-05-09T01:01:49.065Z,12.70
2024-05-09T01:02:22.558Z,12.80
2024-05-09T01:02:57.778Z,12.70
2024-05-09T01:03:30.363Z,12.70
2024-05-09T01:04:03.188Z,12.70
2024-05-09T01:04:35.732Z,12.70
2024-05-09T01:05:13.713Z,12.70
2024-05-09T01:05:46.242Z,12.70
2024-05-09T01:06:20.599Z,12.70
2024-05-09T01:06:52.933Z,12.70
2024-05-09T01:07:28.042Z,12.70
2024-05-09T01:08:00.553Z,12.80
2024-05-09T01:08:33.091Z,12.80
2024-05-09T01:09:08.129Z,12.80
2024-05-09T01:09:40.462Z,12.80
2024-05-09T01:10:17.429Z,12.80
2024-05-09T01:10:58.911Z,12.80
2024-05-09T01:11:37.063Z,12.80
2024-05-09T01:12:09.730Z,12.80
2024-05-09T01:12:42.103Z,12.80
2024-05-09T01:13:17.163Z,12.80
2024-05-09T01:13:49.568Z,12.80
2024-05-09T01:14:22.039Z,12.80
2024-05-09T01:14:57.103Z,12.80
2024-05-09T01:15:29.393Z,12.80
2024-05-09T01:16:02.236Z,12.70
2024-05-09T01:16:34.770Z,12.70
2024-05-09T01:17:09.983Z,12.70
2024-05-09T01:17:42.556Z,12.80
2024-05-09T01:18:15.542Z,12.80
2024-05-09T01:18:48.125Z,12.80
2024-05-09T01:19:26.376Z,12.80
2024-05-09T01:19:58.921Z,12.80
2024-05-09T01:20:41.105Z,12.80
2024-05-09T01:21:18.781Z,12.90
2024-05-09T01:21:51.097Z,12.90
2024-05-09T01:22:25.393Z,12.90
2024-05-09T01:22:58.220Z,12.90
2024-05-09T01:23:35.917Z,12.90
2024-05-09T01:24:08.231Z,12.90
2024-05-09T01:24:40.519Z,12.90
2024-05-09T01:25:15.724Z,12.90
2024-05-09T01:25:48.059Z,12.80
2024-05-09T01:26:20.472Z,12.80
2024-05-09T01:26:52.871Z,12.80
2024-05-09T01:27:27.803Z,12.80
2024-05-09T01:28:00.091Z,12.90
2024-05-09T01:28:32.376Z,12.90
2024-05-09T01:29:04.826Z,12.90
2024-05-09T01:29:39.790Z,12.90
2024-05-09T01:30:17.287Z,12.90
2024-05-09T01:30:53.462Z,12.90
2024-05-09T01:31:28.414Z,12.90
2024-05-09T01:32:00.927Z,12.90
2024-05-09T01:32:33.397Z,12.90
2024-05-09T01:33:08.549Z,12.90
2024-05-09T01:33:46.164Z,12.90
2024-05-09T01:34:18.695Z,12.90
2024-05-09T01:34:51.108Z,12.90
2024-05-09T01:35:23.807Z,12.90
2024-05-09T01:35:58.948Z,12.90
2024-05-09T01:36:31.450Z,12.90
2024-05-09T01:37:04.025Z,13.00
2024-05-09T01:37:40.308Z,13.00
2024-05-09T01:38:13.894Z,12.90
2024-05-09T01:38:49.237Z,12.90
2024-05-09T01:39:21.550Z,12.90
2024-05-09T01:39:56.525Z,12.90
2024-05-09T01:40:36.665Z,12.90
2024-05-09T01:41:11.599Z,12.80
2024-05-09T01:41:46.555Z,12.80
2024-05-09T01:42:18.841Z,12.80
2024-05-09T01:42:51.139Z,12.90
2024-05-09T01:43:23.435Z,12.90
2024-05-09T01:43:58.430Z,12.90
2024-05-09T01:44:30.839Z,12.90
2024-05-09T01:45:03.239Z,12.80
2024-05-09T01:45:35.545Z,12.80
2024-05-09T01:46:15.906Z,12.70
2024-05-09T01:46:48.243Z,12.70
2024-05-09T01:47:20.703Z,12.70
2024-05-09T01:47:53.306Z,12.70
2024-05-09T01:48:28.511Z,12.70
2024-05-09T01:49:00.964Z,12.70
2024-05-09T01:49:37.281Z,12.70
2024-05-09T01:50:11.062Z,12.70
2024-05-09T01:50:46.307Z,12.70
2024-05-09T01:51:18.689Z,12.70
2024-05-09T01:51:51.022Z,12.70
2024-05-09T01:52:23.314Z,12.70
2024-05-09T01:52:58.270Z,12.70
2024-05-09T01:53:30.741Z,12.70
2024-05-09T01:54:06.421Z,12.70
2024-05-09T01:54:38.706Z,12.70
2024-05-09T01:55:13.671Z,12.80
2024-05-09T01:55:46.116Z,12.70
2024-05-09T01:56:18.471Z,12.60
2024-05-09T01:56:53.443Z,12.60
2024-05-09T01:57:25.776Z,12.60
2024-05-09T01:57:58.110Z,12.60
2024-05-09T01:58:33.252Z,12.60
2024-05-09T01:59:06.802Z,12.60
2024-05-09T01:59:39.261Z,12.60
2024-05-09T02:00:22.157Z,12.60
2024-05-09T02:01:01.899Z,12.60
2024-05-09T02:01:55.516Z,12.60
2024-05-09T02:02:29.335Z,12.60
2024-05-09T02:03:02.022Z,12.60
2024-05-09T02:03:34.661Z,12.60
2024-05-09T02:04:07.537Z,12.70
2024-05-09T02:04:42.737Z,12.70
2024-05-09T02:05:15.294Z,12.70
2024-05-09T02:05:49.705Z,12.80
2024-05-09T02:06:22.266Z,12.80
2024-05-09T02:06:57.230Z,12.80
2024-05-09T02:07:29.510Z,12.80
2024-05-09T02:08:01.896Z,12.80
2024-05-09T02:08:36.978Z,12.80
2024-05-09T02:09:12.030Z,12.80
2024-05-09T02:09:44.324Z,12.80
2024-05-09T02:10:23.315Z,12.80
2024-05-09T02:11:05.061Z,12.80
2024-05-09T02:11:42.808Z,12.80
2024-05-09T02:12:15.303Z,12.80
2024-05-09T02:12:47.668Z,12.80
2024-05-09T02:13:22.624Z,12.80
2024-05-09T02:13:54.945Z,12.80
2024-05-09T02:14:27.467Z,12.80
2024-05-09T02:14:59.897Z,12.80
2024-05-09T02:15:34.827Z,12.80
2024-05-09T02:16:11.337Z,12.80
2024-05-09T02:16:43.788Z,12.80
2024-05-09T02:17:16.319Z,12.80
2024-05-09T02:17:51.879Z,12.80
2024-05-09T02:18:24.325Z,12.90
2024-05-09T02:18:56.758Z,12.90
2024-05-09T02:19:29.172Z,12.90
2024-05-09T02:20:06.110Z,12.90
2024-05-09T02:20:39.473Z,12.90
2024-05-09T02:21:12.173Z,12.90
2024-05-09T02:21:44.477Z,12.90
2024-05-09T02:22:19.400Z,12.90
2024-05-09T02:22:51.725Z,12.90
2024-05-09T02:23:24.127Z,12.90
2024-05-09T02:23:56.450Z,12.90
2024-05-09T02:24:34.095Z,12.90
2024-05-09T02:25:06.635Z,12.90
2024-05-09T02:25:38.990Z,13.00
2024-05-09T02:26:11.311Z,12.90
2024-05-09T02:26:46.367Z,12.90
2024-05-09T02:27:18.651Z,12.90
2024-05-09T02:27:50.983Z,12.90
2024-05-09T02:28:23.334Z,12.90
2024-05-09T02:28:58.377Z,12.90
2024-05-09T02:29:30.829Z,12.90
2024-05-09T02:30:04.697Z,13.00
2024-05-09T02:30:41.902Z,12.90
2024-05-09T02:31:17.550Z,13.00
2024-05-09T02:31:49.997Z,13.00
2024-05-09T02:32:22.436Z,13.00
2024-05-09T02:32:54.934Z,13.00
2024-05-09T02:33:30.996Z,13.00
2024-05-09T02:34:04.325Z,13.00
2024-05-09T02:34:36.794Z,13.00
2024-05-09T02:35:09.145Z,13.00
2024-05-09T02:35:44.654Z,12.90
2024-05-09T02:36:17.203Z,13.00
2024-05-09T02:36:49.487Z,12.90
2024-05-09T02:37:21.809Z,13.00
2024-05-09T02:37:54.156Z,13.00
2024-05-09T02:38:26.516Z,13.00
2024-05-09T02:38:58.828Z,12.90
2024-05-09T02:39:37.052Z,13.00
2024-05-09T02:40:14.547Z,13.00
2024-05-09T02:40:50.329Z,13.00
2024-05-09T02:41:22.769Z,12.90
2024-05-09T02:41:55.147Z,12.90
2024-05-09T02:42:27.494Z,12.90
2024-05-09T02:43:00.564Z,12.90
2024-05-09T02:43:35.641Z,12.90
2024-05-09T02:44:07.943Z,12.90
2024-05-09T02:44:40.240Z,12.90
2024-05-09T02:45:12.575Z,12.90
2024-05-09T02:45:44.882Z,12.90
2024-05-09T02:46:17.168Z,12.90
2024-05-09T02:46:50.245Z,12.90
2024-05-09T02:47:25.432Z,12.90
2024-05-09T02:47:58.018Z,12.90
2024-05-09T02:48:30.643Z,12.90
2024-05-09T02:49:03.132Z,12.90
2024-05-09T02:49:35.568Z,12.90
2024-05-09T02:50:08.527Z,13.00
2024-05-09T02:50:41.211Z,12.90
2024-05-09T02:51:16.461Z,12.90
2024-05-09T02:51:48.796Z,13.00
2024-05-09T02:52:21.175Z,12.90
2024-05-09T02:52:53.545Z,12.90
2024-05-09T02:53:25.908Z,12.90
2024-05-09T02:53:58.299Z,12.90
2024-05-09T02:54:30.592Z,12.90
2024-05-09T02:55:08.491Z,12.90
2024-05-09T02:55:42.419Z,12.90
2024-05-09T02:56:14.986Z,12.90
2024-05-09T02:56:47.302Z,12.90
2024-05-09T02:57:19.581Z,12.90
2024-05-09T02:57:54.524Z,12.90
2024-05-09T02:58:26.802Z,12.90
2024-05-09T02:58:59.550Z,12.90
2024-05-09T02:59:31.891Z,12.90
2024-05-09T03:00:06.142Z,12.90
2024-05-09T03:00:42.271Z,12.90
2024-05-09T03:01:20.430Z,12.90
2024-05-09T03:01:53.016Z,12.90
2024-05-09T03:02:27.005Z,12.90
2024-05-09T03:02:59.575Z,12.90
2024-05-09T03:03:32.136Z,12.90
2024-05-09T03:04:05.259Z,12.90
2024-05-09T03:04:38.804Z,12.90
2024-05-09T03:05:11.803Z,12.90
2024-05-09T03:05:47.306Z,12.90
2024-05-09T03:06:19.653Z,12.90
2024-05-09T03:06:51.931Z,12.80
2024-05-09T03:07:24.252Z,12.90
2024-05-09T03:07:56.582Z,12.90
2024-05-09T03:08:29.003Z,12.90
2024-05-09T03:09:04.876Z,12.90
2024-05-09T03:09:37.200Z,12.90
2024-05-09T03:10:18.533Z,12.90
2024-05-09T03:10:54.857Z,12.90
2024-05-09T03:11:27.433Z,12.90
2024-05-09T03:11:59.967Z,12.90
2024-05-09T03:12:36.561Z,12.90
2024-05-09T03:13:11.721Z,12.90
2024-05-09T03:13:44.269Z,12.90
2024-05-09T03:14:16.866Z,12.90
2024-05-09T03:14:50.595Z,12.90
2024-05-09T03:15:22.863Z,13.00
2024-05-09T03:15:55.148Z,12.90
2024-05-09T03:16:30.214Z,12.90
2024-05-09T03:17:02.567Z,13.00
2024-05-09T03:17:35.148Z,13.00
2024-05-09T03:18:08.010Z,13.00
2024-05-09T03:18:40.524Z,13.00
2024-05-09T03:19:13.005Z,12.90
2024-05-09T03:19:48.170Z,12.90
2024-05-09T03:20:24.181Z,12.90
2024-05-09T03:21:02.926Z,12.90
2024-05-09T03:21:39.014Z,12.90
2024-05-09T03:22:12.536Z,12.90
2024-05-09T03:22:47.581Z,12.90
2024-05-09T03:23:20.108Z,12.90
2024-05-09T03:23:52.448Z,12.90
2024-05-09T03:24:24.785Z,12.90
2024-05-09T03:24:57.093Z,12.90
2024-05-09T03:25:32.089Z,12.90
2024-05-09T03:26:12.291Z,12.90
2024-05-09T03:26:44.800Z,12.90
2024-05-09T03:27:17.779Z,12.90
2024-05-09T03:27:50.138Z,12.90
2024-05-09T03:28:22.480Z,13.00
2024-05-09T03:28:54.845Z,13.00
2024-05-09T03:29:27.458Z,13.00
2024-05-09T03:30:03.832Z,13.00
2024-05-09T03:30:41.922Z,13.00
2024-05-09T03:31:18.322Z,13.00
2024-05-09T03:31:50.731Z,13.00
2024-05-09T03:32:23.172Z,13.00
2024-05-09T03:32:55.728Z,12.90
2024-05-09T03:33:28.352Z,12.90
2024-05-09T03:34:03.561Z,12.90
2024-05-09T03:34:35.977Z,12.90
2024-05-09T03:35:08.393Z,12.90
2024-05-09T03:35:40.950Z,12.90
2024-05-09T03:36:13.355Z,13.00
2024-05-09T03:36:48.283Z,12.90
2024-05-09T03:37:20.571Z,12.90
2024-05-09T03:37:52.884Z,12.90
2024-05-09T03:38:25.370Z,12.90
2024-05-09T03:38:58.463Z,12.90
2024-05-09T03:39:33.401Z,12.90
2024-05-09T03:40:11.810Z,12.90
2024-05-09T03:40:50.886Z,12.90
2024-05-09T03:41:23.494Z,12.90
2024-05-09T03:41:58.504Z,12.90
2024-05-09T03:42:30.803Z,12.90
2024-05-09T03:43:03.205Z,12.90
2024-05-09T03:43:35.595Z,12.90
2024-05-09T03:44:08.502Z,12.90
2024-05-09T03:44:43.665Z,13.00
2024-05-09T03:45:16.674Z,12.90
2024-05-09T03:45:49.996Z,12.90
2024-05-09T03:46:22.297Z,12.80
2024-05-09T03:46:54.643Z,12.80
2024-05-09T03:47:27.114Z,12.80
2024-05-09T03:48:02.463Z,12.80
2024-05-09T03:48:35.956Z,12.90
2024-05-09T03:49:08.572Z,12.90
2024-05-09T03:49:41.143Z,12.90
2024-05-09T03:50:21.976Z,12.90
2024-05-09T03:50:58.281Z,12.90
2024-05-09T03:51:30.582Z,12.80
2024-05-09T03:52:06.050Z,12.90
2024-05-09T03:52:38.380Z,12.80
2024-05-09T03:53:12.247Z,12.90
2024-05-09T03:53:44.683Z,12.90
2024-05-09T03:54:17.022Z,12.90
2024-05-09T03:54:49.297Z,12.90
2024-05-09T03:55:21.588Z,12.90
2024-05-09T03:55:59.787Z,12.90
2024-05-09T03:56:32.272Z,12.90
2024-05-09T03:57:05.290Z,12.90
2024-05-09T03:57:37.578Z,12.90
2024-05-09T03:58:10.033Z,12.90
2024-05-09T03:58:42.348Z,12.90
2024-05-09T03:59:14.664Z,12.90
2024-05-09T03:59:49.630Z,13.00
2024-05-09T04:00:31.078Z,13.00
2024-05-09T04:01:09.789Z,13.00
2024-05-09T04:01:42.337Z,13.00
2024-05-09T04:02:14.898Z,13.00
2024-05-09T04:02:47.939Z,12.90
2024-05-09T04:03:20.641Z,12.90
2024-05-09T04:03:55.936Z,12.90
2024-05-09T04:04:28.398Z,12.90
2024-05-09T04:05:00.863Z,12.90
2024-05-09T04:05:33.484Z,12.90
2024-05-09T04:06:06.097Z,12.90
2024-05-09T04:06:38.437Z,12.90
2024-05-09T04:07:10.792Z,12.90
2024-05-09T04:07:43.972Z,13.00
2024-05-09T04:08:19.120Z,12.80
2024-05-09T04:08:51.567Z,12.80
2024-05-09T04:09:23.865Z,12.80
2024-05-09T04:09:56.165Z,12.70
2024-05-09T04:10:33.432Z,12.70
2024-05-09T04:11:12.771Z,12.70
2024-05-09T04:11:45.287Z,12.70
2024-05-09T04:12:17.766Z,12.70
2024-05-09T04:12:50.145Z,12.70
2024-05-09T04:13:22.468Z,12.70
2024-05-09T04:13:54.844Z,12.70
2024-05-09T04:14:27.230Z,12.70
2024-05-09T04:15:02.396Z,12.70
2024-05-09T04:15:34.686Z,12.70
2024-05-09T04:16:10.123Z,12.70
2024-05-09T04:16:42.684Z,12.70
2024-05-09T04:17:15.047Z,12.80
2024-05-09T04:17:51.768Z,12.80
2024-05-09T04:18:26.905Z,12.80
2024-05-09T04:18:59.343Z,12.80
2024-05-09T04:19:31.854Z,12.80
2024-05-09T04:20:08.244Z,12.80
2024-05-09T04:20:41.479Z,12.80
2024-05-09T04:21:13.995Z,12.70
2024-05-09T04:21:49.031Z,12.70
2024-05-09T04:22:21.364Z,12.80
2024-05-09T04:22:53.742Z,12.80
2024-05-09T04:23:26.098Z,12.80
2024-05-09T04:23:58.402Z,12.80
2024-05-09T04:24:30.705Z,12.80
2024-05-09T04:25:02.982Z,12.80
2024-05-09T04:25:35.270Z,12.80
2024-05-09T04:26:13.944Z,12.80
2024-05-09T04:26:46.299Z,12.80
2024-05-09T04:27:18.711Z,12.80
2024-05-09T04:27:55.545Z,12.90
2024-05-09T04:28:27.889Z,12.80
2024-05-09T04:29:00.191Z,12.80
2024-05-09T04:29:32.605Z,12.80
2024-05-09T04:30:15.264Z,12.80
2024-05-09T04:30:51.448Z,12.80
2024-05-09T04:31:23.789Z,12.70
2024-05-09T04:31:56.191Z,12.70
2024-05-09T04:32:28.835Z,12.70
2024-05-09T04:33:01.368Z,12.70
2024-05-09T04:33:36.658Z,12.70
2024-05-09T04:34:09.441Z,12.70
2024-05-09T04:34:41.967Z,12.70
2024-05-09T04:35:16.436Z,12.80
2024-05-09T04:35:49.524Z,12.80
2024-05-09T04:36:21.851Z,12.80
2024-05-09T04:36:54.167Z,12.80
2024-05-09T04:37:30.402Z,12.80
2024-05-09T04:38:03.424Z,12.80
2024-05-09T04:38:35.939Z,12.80
2024-05-09T04:39:08.380Z,12.80
2024-05-09T04:39:40.687Z,12.90
2024-05-09T04:40:24.047Z,12.90
2024-05-09T04:41:03.943Z,12.90
2024-05-09T04:41:42.082Z,12.80
2024-05-09T04:42:14.374Z,12.80
2024-05-09T04:42:46.670Z,12.80
2024-05-09T04:43:20.404Z,12.80
2024-05-09T04:43:52.784Z,12.80
2024-05-09T04:44:25.150Z,12.80
2024-05-09T04:44:58.794Z,12.90
2024-05-09T04:45:33.823Z,12.90
2024-05-09T04:46:06.111Z,12.90
2024-05-09T04:46:39.662Z,12.90
2024-05-09T04:47:12.108Z,12.90
2024-05-09T04:47:44.615Z,12.90
2024-05-09T04:48:17.306Z,12.90
2024-05-09T04:48:53.621Z,12.90
2024-05-09T04:49:26.180Z,12.90
2024-05-09T04:49:58.687Z,12.90
2024-05-09T04:50:36.842Z,12.90
2024-05-09T04:51:11.259Z,12.90
2024-05-09T04:51:43.560Z,12.80
2024-05-09T04:52:15.835Z,12.90
2024-05-09T04:52:50.825Z,12.90
2024-05-09T04:53:23.240Z,12.90
2024-05-09T04:53:55.783Z,12.90
2024-05-09T04:54:34.310Z,12.90
2024-05-09T04:55:08.820Z,12.90
2024-05-09T04:55:41.249Z,12.90
2024-05-09T04:56:16.258Z,12.90
2024-05-09T04:56:51.258Z,12.90
2024-05-09T04:57:23.523Z,13.00
2024-05-09T04:57:55.836Z,13.00
2024-05-09T04:58:28.132Z,13.00
2024-05-09T04:59:03.076Z,13.00
2024-05-09T04:59:36.331Z,12.90
2024-05-09T05:00:14.739Z,12.90
2024-05-09T05:00:53.982Z,12.90
2024-05-09T05:01:26.390Z,12.90
2024-05-09T05:01:58.884Z,12.90
2024-05-09T05:02:32.484Z,12.90
2024-05-09T05:03:10.277Z,12.90
2024-05-09T05:03:44.841Z,12.90
2024-05-09T05:04:17.619Z,12.90
2024-05-09T05:04:50.150Z,12.90
2024-05-09T05:05:22.527Z,12.90
2024-05-09T05:05:54.936Z,13.00
2024-05-09T05:06:27.342Z,13.00
2024-05-09T05:07:02.693Z,13.00
2024-05-09T05:07:38.010Z,13.00
2024-05-09T05:08:11.792Z,13.00
2024-05-09T05:08:44.254Z,13.00
2024-05-09T05:09:16.634Z,13.00
2024-05-09T05:09:48.975Z,13.00
2024-05-09T05:10:25.750Z,13.00
2024-05-09T05:11:05.608Z,13.10
2024-05-09T05:11:40.926Z,13.10
2024-05-09T05:12:30.893Z,13.10
2024-05-09T05:13:30.121Z,13.10
2024-05-09T05:14:02.476Z,13.10
2024-05-09T05:14:34.836Z,13.10
2024-05-09T05:15:07.842Z,13.00
2024-05-09T05:15:42.774Z,13.00
2024-05-09T05:16:15.041Z,13.00
2024-05-09T05:16:47.406Z,13.10
2024-05-09T05:17:19.830Z,13.10
2024-05-09T05:17:52.364Z,13.10
2024-05-09T05:18:25.804Z,13.10
2024-05-09T05:18:58.300Z,13.20
2024-05-09T05:19:30.968Z,13.20
2024-05-09T05:20:08.536Z,13.20
2024-05-09T05:20:41.334Z,13.20
2024-05-09T05:21:13.775Z,13.20
2024-05-09T05:21:46.111Z,13.20
2024-05-09T05:22:21.038Z,13.20
2024-05-09T05:22:53.386Z,13.20
2024-05-09T05:23:26.047Z,13.20
2024-05-09T05:23:58.450Z,13.20
2024-05-09T05:24:30.859Z,13.10
2024-05-09T05:25:03.250Z,13.10
2024-05-09T05:25:35.642Z,13.10
2024-05-09T05:26:10.655Z,13.10
2024-05-09T05:26:42.985Z,13.10
2024-05-09T05:27:17.947Z,13.20
2024-05-09T05:27:50.218Z,13.20
2024-05-09T05:28:22.814Z,13.20
2024-05-09T05:28:55.179Z,13.20
2024-05-09T05:29:27.536Z,13.20
2024-05-09T05:30:02.803Z,13.20
2024-05-09T05:30:37.563Z,13.20
2024-05-09T05:31:09.990Z,13.30
2024-05-09T05:31:42.351Z,13.30
2024-05-09T05:32:14.818Z,13.30
2024-05-09T05:32:47.396Z,13.30
2024-05-09T05:33:23.238Z,13.30
2024-05-09T05:33:56.001Z,13.40
2024-05-09T05:34:28.353Z,13.40
2024-05-09T05:35:00.753Z,13.40
2024-05-09T05:35:33.957Z,13.40
2024-05-09T05:36:07.462Z,13.40
2024-05-09T05:36:39.741Z,13.40
2024-05-09T05:37:14.694Z,13.40
2024-05-09T05:37:47.027Z,13.50
2024-05-09T05:38:21.957Z,13.50
2024-05-09T05:38:56.289Z,13.50
2024-05-09T05:39:28.710Z,13.50
2024-05-09T05:40:00.991Z,13.50
2024-05-09T05:40:37.040Z,13.50
2024-05-09T05:41:10.857Z,13.50
2024-05-09T05:41:45.854Z,13.40
2024-05-09T05:42:20.871Z,13.50
2024-05-09T05:42:53.178Z,13.50
2024-05-09T05:43:25.531Z,13.50
2024-05-09T05:43:57.916Z,13.50
2024-05-09T05:44:30.468Z,13.50
2024-05-09T05:45:03.626Z,13.50
2024-05-09T05:45:39.603Z,13.50
2024-05-09T05:46:11.915Z,13.50
2024-05-09T05:46:44.409Z,13.50
2024-05-09T05:47:16.919Z,13.50
2024-05-09T05:47:49.541Z,13.50
2024-05-09T05:48:22.237Z,13.50
2024-05-09T05:48:54.693Z,13.60
2024-05-09T05:49:29.923Z,13.60
2024-05-09T05:50:02.937Z,13.60
2024-05-09T05:50:37.633Z,13.60
2024-05-09T05:51:10.969Z,13.60
2024-05-09T05:51:43.272Z,13.50
2024-05-09T05:52:15.556Z,13.60
2024-05-09T05:52:50.551Z,13.50
2024-05-09T05:53:22.939Z,13.50
2024-05-09T05:53:55.287Z,13.50
2024-05-09T05:54:27.724Z,13.50
2024-05-09T05:55:00.060Z,13.50
2024-05-09T05:55:32.401Z,13.60
2024-05-09T05:56:08.278Z,13.50
2024-05-09T05:56:40.675Z,13.60
2024-05-09T05:57:13.678Z,13.60
2024-05-09T05:57:48.662Z,13.60
2024-05-09T05:58:21.585Z,13.60
2024-05-09T05:58:53.962Z,13.60
2024-05-09T05:59:29.150Z,13.50
2024-05-09T06:00:09.377Z,13.50
2024-05-09T06:00:42.977Z,13.50
2024-05-09T06:01:15.587Z,13.60
2024-05-09T06:01:47.975Z,13.60
2024-05-09T06:02:20.464Z,13.60
2024-05-09T06:02:53.270Z,13.70
2024-05-09T06:03:25.716Z,13.70
2024-05-09T06:03:58.222Z,13.70
2024-05-09T06:04:33.393Z,13.70
2024-05-09T06:05:06.484Z,13.80
2024-05-09T06:05:39.815Z,13.80
2024-05-09T06:06:14.130Z,13.80
2024-05-09T06:06:46.452Z,13.80
2024-05-09T06:07:21.426Z,13.80
2024-05-09T06:07:53.772Z,13.80
2024-05-09T06:08:28.884Z,13.80
2024-05-09T06:09:02.341Z,13.90
2024-05-09T06:09:34.812Z,13.90
2024-05-09T06:10:16.961Z,13.90
2024-05-09T06:10:56.281Z,13.90
2024-05-09T06:11:28.766Z,13.90
2024-05-09T06:12:01.410Z,13.90
2024-05-09T06:12:33.943Z,13.90
2024-05-09T06:13:11.055Z,13.90
2024-05-09T06:13:43.752Z,14.00
2024-05-09T06:14:18.812Z,14.00
2024-05-09T06:14:51.202Z,14.00
2024-05-09T06:15:23.532Z,14.00
2024-05-09T06:15:55.840Z,14.10
2024-05-09T06:16:28.163Z,14.10
2024-05-09T06:17:00.869Z,14.10
2024-05-09T06:17:33.313Z,14.10
2024-05-09T06:18:09.939Z,14.10
2024-05-09T06:18:43.332Z,14.10
2024-05-09T06:19:15.879Z,14.10
2024-05-09T06:19:48.761Z,14.20
2024-05-09T06:20:31.099Z,14.20
2024-05-09T06:21:10.248Z,14.20
2024-05-09T06:21:42.601Z,14.20
2024-05-09T06:22:14.921Z,14.20
2024-05-09T06:22:47.284Z,14.20
2024-05-09T06:23:19.679Z,14.30
2024-05-09T06:23:53.404Z,14.30
2024-05-09T06:24:25.724Z,14.30
2024-05-09T06:24:58.090Z,14.30
2024-05-09T06:25:33.064Z,14.30
2024-05-09T06:26:05.600Z,14.30
2024-05-09T06:26:41.240Z,14.40
2024-05-09T06:27:13.576Z,14.40
2024-05-09T06:27:45.920Z,14.40
2024-05-09T06:28:20.912Z,14.40
2024-05-09T06:28:53.250Z,14.40
2024-05-09T06:29:25.701Z,14.30
2024-05-09T06:30:00.785Z,14.40
2024-05-09T06:31:08.368Z,14.40
2024-05-09T06:31:41.037Z,14.40
2024-05-09T06:32:13.450Z,14.40
2024-05-09T06:32:45.965Z,14.40
2024-05-09T06:33:21.218Z,14.50
2024-05-09T06:33:53.830Z,14.40
2024-05-09T06:34:26.396Z,14.50
2024-05-09T06:34:58.782Z,14.50
2024-05-09T06:35:31.514Z,14.50
2024-05-09T06:36:04.270Z,14.50
2024-05-09T06:36:41.361Z,14.50
2024-05-09T06:37:13.754Z,14.50
2024-05-09T06:37:46.143Z,14.40
2024-05-09T06:38:18.544Z,14.50
2024-05-09T06:38:50.871Z,14.50
2024-05-09T06:39:23.410Z,14.50
2024-05-09T06:39:58.377Z,14.50
2024-05-09T06:40:37.242Z,14.50
2024-05-09T06:41:12.432Z,14.50
2024-05-09T06:41:44.780Z,14.60
2024-05-09T06:42:17.153Z,14.60
2024-05-09T06:42:49.502Z,14.60
2024-05-09T06:43:27.140Z,14.60
2024-05-09T06:43:59.505Z,14.70
2024-05-09T06:44:31.909Z,14.70
2024-05-09T06:45:04.656Z,14.70
2024-05-09T06:45:37.161Z,14.70
2024-05-09T06:46:09.516Z,14.70
2024-05-09T06:46:45.369Z,14.70
2024-05-09T06:47:17.781Z,14.70
2024-05-09T06:47:50.347Z,14.80
2024-05-09T06:48:23.269Z,14.80
2024-05-09T06:48:56.049Z,14.80
2024-05-09T06:49:30.150Z,14.80
2024-05-09T06:50:03.639Z,14.70
2024-05-09T06:50:40.453Z,14.80
2024-05-09T06:51:13.323Z,14.80
2024-05-09T06:51:45.656Z,14.80
2024-05-09T06:52:19.267Z,14.80
2024-05-09T06:52:51.600Z,14.80
2024-05-09T06:53:24.053Z,14.80
2024-05-09T06:53:59.131Z,14.80
2024-05-09T06:54:31.438Z,14.80
2024-05-09T06:55:03.944Z,14.90
2024-05-09T06:55:36.625Z,14.80
2024-05-09T06:56:09.058Z,14.80
2024-05-09T06:56:41.442Z,14.70
2024-05-09T06:57:16.403Z,14.70
2024-05-09T06:57:48.729Z,14.70
2024-05-09T06:58:23.729Z,14.70
2024-05-09T06:58:56.109Z,14.70
2024-05-09T06:59:28.832Z,14.80
2024-05-09T07:00:01.411Z,14.70
2024-05-09T07:00:39.060Z,14.70
2024-05-09T07:01:16.044Z,14.70
2024-05-09T07:01:48.448Z,14.70
2024-05-09T07:02:20.899Z,14.80
2024-05-09T07:02:53.407Z,14.70
2024-05-09T07:03:25.934Z,14.80
2024-05-09T07:03:58.421Z,14.80
2024-05-09T07:04:33.593Z,14.80
2024-05-09T07:05:06.598Z,14.80
2024-05-09T07:05:39.029Z,14.80
2024-05-09T07:06:11.493Z,14.80
2024-05-09T07:06:43.844Z,14.80
2024-05-09T07:07:16.185Z,14.80
2024-05-09T07:07:51.226Z,14.70
2024-05-09T07:08:23.684Z,14.70
2024-05-09T07:08:56.049Z,14.80
2024-05-09T07:09:28.374Z,14.70
2024-05-09T07:10:00.653Z,14.80
2024-05-09T07:10:36.656Z,14.80
2024-05-09T07:11:09.592Z,14.80
2024-05-09T07:11:42.095Z,14.80
2024-05-09T07:12:14.740Z,14.80
2024-05-09T07:12:47.712Z,14.90
2024-05-09T07:13:22.691Z,14.90
2024-05-09T07:13:57.715Z,14.90
2024-05-09T07:14:30.343Z,14.90
2024-05-09T07:15:02.774Z,15.00
2024-05-09T07:15:35.097Z,15.00
2024-05-09T07:16:07.722Z,15.00
2024-05-09T07:16:40.081Z,15.00